Terminal Aerodrome Forecast
Issued by NWS Jacksonville, FL

Home | Current Version | Previous Version | Text Only | Print | Product List | Glossary On
Versions: 1 2 3 4 5 6 7 8 9 10 11 12 13 14 15 16 17 18 19 20
249
FTUS42 KJAX 231253 AAA
TAFGNV
TAF AMD
KGNV 231253Z 2313/2412 02012KT P6SM VCSH SCT025 BKN035 OVC060
      TEMPO 2313/2315 BKN025
     FM231500 04015G24KT P6SM SCT020 BKN035 OVC100
     FM240000 02006KT P6SM SCT020 BKN040=

USA.gov is the U.S. government's official web portal to all federal, state and local government web resources and services.